Time;durP1;ratioP1;P1;durP2;ratioP2;P2;SDS_P1;SDS_P2;PMS_P1;PMS_P2;Temp;Humidity;BMP_temperature;BMP_pressure;BME280_temperature;BME280_humidity;BME280_pressure;Samples;Min_cycle;Max_cycle;Signal;HPM_P1;HPM_P2
2022/01/12 00:01:25;;;;;;;3.60;1.85;;;25.60;50.20;;;;;;5038342;28;20310;-45
2022/01/12 00:03:55;;;;;;;4.53;1.73;;;25.70;50.20;;;;;;5051128;28;20935;-44
2022/01/12 00:06:26;;;;;;;2.63;1.80;;;25.70;50.20;;;;;;5033541;28;20719;-45
2022/01/12 00:08:56;;;;;;;4.15;1.80;;;25.70;50.10;;;;;;5037782;28;20220;-45
2022/01/12 00:11:27;;;;;;;2.47;1.60;;;25.80;50.10;;;;;;5035437;28;20703;-44
2022/01/12 00:13:57;;;;;;;3.47;1.58;;;25.80;50.00;;;;;;5034738;28;20278;-53
2022/01/12 00:16:29;;;;;;;3.90;1.85;;;25.80;50.00;;;;;;5047427;28;20298;-48
2022/01/12 00:19:00;;;;;;;2.78;1.50;;;25.80;49.90;;;;;;5035608;28;20632;-52
2022/01/12 00:21:31;;;;;;;3.65;1.60;;;25.80;49.90;;;;;;5037300;28;20260;-44
2022/01/12 00:24:01;;;;;;;3.97;1.60;;;25.80;49.80;;;;;;5035996;28;20311;-44
2022/01/12 00:33:08;;;;;;;3.88;1.70;;;25.80;49.80;;;;;;5035005;28;20283;-49
2022/01/12 00:35:19;;;;;;;1.73;1.40;;;25.90;49.70;;;;;;5043627;28;20202;-47
2022/01/12 00:37:50;;;;;;;1.95;1.52;;;25.90;49.60;;;;;;5045861;28;20283;-43
2022/01/12 00:40:20;;;;;;;4.93;1.60;;;25.90;49.60;;;;;;5045783;28;20309;-46
2022/01/12 00:42:51;;;;;;;1.48;1.17;;;25.90;49.60;;;;;;5048922;28;20221;-50
2022/01/12 00:45:21;;;;;;;2.63;1.35;;;25.90;49.60;;;;;;5064537;28;20818;-47
2022/01/12 00:47:54;;;;;;;3.20;1.73;;;25.90;49.50;;;;;;5046667;28;20233;-43
2022/01/12 00:50:24;;;;;;;3.25;1.60;;;25.90;49.60;;;;;;5042468;28;20326;-50
2022/01/12 00:52:55;;;;;;;2.13;1.30;;;25.90;49.40;;;;;;5045040;28;20299;-46
2022/01/12 00:55:25;;;;;;;2.30;1.48;;;25.90;49.40;;;;;;5049579;28;20286;-49
2022/01/12 00:57:58;;;;;;;2.40;1.45;;;25.90;49.30;;;;;;5045492;28;20285;-44
2022/01/12 01:00:29;;;;;;;2.85;1.45;;;26.00;49.40;;;;;;5037010;28;20894;-52
2022/01/12 01:03:02;;;;;;;2.60;1.40;;;26.00;49.30;;;;;;5036827;28;20222;-45
2022/01/12 01:05:33;;;;;;;1.60;1.20;;;26.00;49.30;;;;;;5034737;28;20286;-43
2022/01/12 01:08:04;;;;;;;2.15;1.13;;;26.00;49.30;;;;;;5032340;28;20203;-46
2022/01/12 01:10:47;;;;;;;1.45;1.10;;;26.00;49.30;;;;;;5045972;28;20291;-44
2022/01/12 01:13:22;;;;;;;2.05;1.33;;;25.90;49.20;;;;;;5042908;28;20220;-51
2022/01/12 01:16:10;;;;;;;1.67;1.23;;;25.90;49.20;;;;;;5034979;28;20195;-45
2022/01/12 01:27:03;;;;;;;2.22;1.15;;;25.90;49.00;;;;;;5044946;28;20226;-46
2022/01/12 01:29:33;;;;;;;2.17;1.33;;;25.90;49.00;;;;;;5044615;28;20286;-44
2022/01/12 01:32:06;;;;;;;3.22;1.13;;;25.90;49.00;;;;;;5045458;28;20246;-51
2022/01/12 01:34:44;;;;;;;1.50;1.40;;;25.90;49.00;;;;;;5033563;28;20283;-47
2022/01/12 01:37:16;;;;;;;2.00;1.30;;;25.90;49.00;;;;;;5048772;28;20730;-49
2022/01/12 01:39:46;;;;;;;2.70;1.25;;;25.90;49.00;;;;;;5034440;28;20730;-54
2022/01/12 01:42:20;;;;;;;2.35;1.35;;;25.90;48.90;;;;;;5047443;28;20194;-46
2022/01/12 01:53:21;;;;;;;2.22;1.23;;;25.80;48.80;;;;;;5031128;28;20227;-51
2022/01/12 01:55:52;;;;;;;2.33;1.13;;;25.80;48.70;;;;;;5046271;28;20199;-50
2022/01/12 01:58:23;;;;;;;3.35;1.20;;;25.80;48.70;;;;;;5040822;28;20551;-52
2022/01/12 02:00:53;;;;;;;2.40;1.10;;;25.80;48.70;;;;;;5034214;28;20751;-51
2022/01/12 02:03:26;;;;;;;2.42;0.93;;;25.80;48.70;;;;;;5049367;28;20251;-46
2022/01/12 02:06:00;;;;;;;1.80;1.23;;;25.80;48.70;;;;;;5033501;28;20206;-46
2022/01/12 02:08:31;;;;;;;1.95;1.23;;;25.80;48.60;;;;;;5036062;28;20211;-48
2022/01/12 02:11:02;;;;;;;2.10;1.27;;;25.80;48.60;;;;;;5035769;28;20291;-53
2022/01/12 02:13:34;;;;;;;2.30;1.25;;;25.80;48.50;;;;;;5043421;28;20257;-51
2022/01/12 02:16:04;;;;;;;1.30;0.90;;;25.80;48.50;;;;;;5064499;28;20293;-51
2022/01/12 02:18:52;;;;;;;2.17;1.08;;;25.80;48.60;;;;;;5046280;28;20195;-49
2022/01/12 02:35:45;;;;;;;1.40;0.90;;;25.70;48.60;;;;;;5029512;28;20250;-50
2022/01/12 02:41:06;;;;;;;1.73;1.02;;;25.70;48.60;;;;;;5044854;28;20234;-51
2022/01/12 02:50:36;;;;;;;2.22;0.90;;;25.70;48.70;;;;;;5038069;28;20248;-54
2022/01/12 02:54:56;;;;;;;2.03;1.00;;;25.60;48.60;;;;;;5048037;28;20202;-45
2022/01/12 02:57:28;;;;;;;2.92;1.13;;;25.70;48.60;;;;;;5038716;28;20226;-50
2022/01/12 03:00:06;;;;;;;2.08;0.90;;;25.60;48.50;;;;;;5050131;28;20659;-49
2022/01/12 03:02:38;;;;;;;2.10;0.90;;;25.60;48.50;;;;;;5052092;28;20230;-50
2022/01/12 03:05:44;;;;;;;2.75;1.48;;;25.60;48.50;;;;;;5032295;28;20210;-55
2022/01/12 03:08:19;;;;;;;2.28;1.00;;;25.60;48.60;;;;;;5032205;28;20706;-45
2022/01/12 03:10:51;;;;;;;1.90;1.10;;;25.60;48.60;;;;;;5046473;28;20566;-46
2022/01/12 03:13:22;;;;;;;2.55;0.93;;;25.60;48.60;;;;;;5033761;28;20310;-47
2022/01/12 03:15:53;;;;;;;3.13;0.98;;;25.50;48.50;;;;;;5042640;28;20199;-51
2022/01/12 03:18:23;;;;;;;2.47;0.80;;;25.60;48.60;;;;;;5057107;28;20294;-46
2022/01/12 03:20:54;;;;;;;2.05;0.90;;;25.50;48.50;;;;;;5047400;28;20310;-51
2022/01/12 03:23:24;;;;;;;2.30;1.05;;;25.60;48.60;;;;;;5034539;28;20320;-49
2022/01/12 03:25:57;;;;;;;2.42;1.15;;;25.60;48.60;;;;;;5051447;28;20282;-50
2022/01/12 03:28:27;;;;;;;3.08;1.20;;;25.50;48.60;;;;;;5055117;28;20278;-49
2022/01/12 03:31:05;;;;;;;1.75;0.90;;;25.50;48.50;;;;;;5032632;28;20279;-50
2022/01/12 03:33:52;;;;;;;1.88;1.10;;;25.50;48.50;;;;;;5038700;28;20269;-46
2022/01/12 03:36:28;;;;;;;2.15;1.10;;;25.50;48.60;;;;;;5048662;28;20210;-46
2022/01/12 03:38:59;;;;;;;1.67;0.80;;;25.50;48.70;;;;;;5041227;28;20250;-46
2022/01/12 03:41:34;;;;;;;2.88;1.20;;;25.50;48.70;;;;;;5040270;28;20310;-49
2022/01/12 03:44:08;;;;;;;3.30;1.00;;;25.50;48.70;;;;;;5049226;28;20254;-53
2022/01/12 03:46:46;;;;;;;2.80;1.00;;;25.50;48.70;;;;;;5044514;28;20202;-48
2022/01/12 03:49:18;;;;;;;2.50;1.15;;;25.50;48.60;;;;;;5035335;28;20199;-46
2022/01/12 03:51:49;;;;;;;1.58;0.90;;;25.40;48.60;;;;;;5045574;28;20294;-43
2022/01/12 03:54:19;;;;;;;0.95;0.82;;;25.40;48.70;;;;;;5048244;28;20302;-50
2022/01/12 03:56:52;;;;;;;3.97;1.20;;;25.40;48.70;;;;;;5050108;28;20274;-47
2022/01/12 03:59:22;;;;;;;1.60;0.88;;;25.40;48.70;;;;;;5049809;28;20215;-46
2022/01/12 04:01:53;;;;;;;1.73;0.98;;;25.40;48.70;;;;;;5036896;28;20311;-45
2022/01/12 04:04:31;;;;;;;2.03;0.98;;;25.40;48.70;;;;;;5040536;28;20276;-46
2022/01/12 04:09:48;;;;;;;1.48;0.90;;;25.40;48.70;;;;;;5033524;28;20206;-55
2022/01/12 04:12:20;;;;;;;2.70;1.00;;;25.40;48.70;;;;;;5050290;28;20278;-45
2022/01/12 04:14:51;;;;;;;2.63;0.85;;;25.40;48.70;;;;;;5047345;28;20287;-46
2022/01/12 04:17:21;;;;;;;2.30;1.00;;;25.30;48.70;;;;;;5048017;28;20634;-43
2022/01/12 04:20:02;;;;;;;2.60;0.90;;;25.30;48.70;;;;;;5048657;28;20726;-44
2022/01/12 04:25:31;;;;;;;1.92;1.00;;;25.30;48.80;;;;;;4967825;28;20310;-48
2022/01/12 04:28:03;;;;;;;1.25;0.70;;;25.30;48.80;;;;;;5021511;28;20223;-49
2022/01/12 04:30:34;;;;;;;3.38;1.00;;;25.30;48.90;;;;;;5047021;28;20231;-43
2022/01/12 04:33:05;;;;;;;1.77;1.00;;;25.30;48.80;;;;;;5047529;28;20258;-46
2022/01/12 04:35:37;;;;;;;3.67;1.20;;;25.30;48.90;;;;;;5064146;28;20227;-47
2022/01/12 04:38:08;;;;;;;2.67;1.02;;;25.30;48.90;;;;;;5064103;28;20191;-46
2022/01/12 04:40:39;;;;;;;2.92;1.10;;;25.30;48.90;;;;;;5047504;28;20294;-47
2022/01/12 04:43:12;;;;;;;1.30;0.80;;;25.30;48.90;;;;;;5045824;28;20649;-45
2022/01/12 04:45:57;;;;;;;2.17;0.77;;;25.20;48.90;;;;;;5036467;28;20204;-49
2022/01/12 04:48:38;;;;;;;1.73;1.00;;;25.30;49.00;;;;;;5033053;28;20195;-49
2022/01/12 04:51:08;;;;;;;2.58;1.02;;;25.30;48.90;;;;;;5049268;28;20601;-46
2022/01/12 04:53:39;;;;;;;3.58;0.95;;;25.20;48.90;;;;;;5036076;28;20223;-47
2022/01/12 04:56:09;;;;;;;2.60;1.20;;;25.20;48.90;;;;;;5045425;28;20278;-48
2022/01/12 04:58:42;;;;;;;1.95;1.00;;;25.20;48.90;;;;;;5059594;28;20278;-48
2022/01/12 05:01:22;;;;;;;2.22;1.10;;;25.20;49.00;;;;;;5032120;28;20310;-49
2022/01/12 05:06:54;;;;;;;1.58;0.93;;;25.20;49.00;;;;;;5036149;28;20570;-43
2022/01/12 05:15:07;;;;;;;2.72;1.20;;;25.10;49.00;;;;;;5044615;28;20215;-54
2022/01/12 05:17:38;;;;;;;2.22;1.00;;;25.10;49.00;;;;;;5032894;28;20218;-49
2022/01/12 05:20:09;;;;;;;1.42;0.77;;;25.10;49.00;;;;;;5032912;28;20287;-45
2022/01/12 05:22:40;;;;;;;1.38;0.75;;;25.10;49.20;;;;;;5036360;28;20343;-45
2022/01/12 05:25:11;;;;;;;3.20;1.08;;;25.10;49.20;;;;;;5037690;28;20276;-49
2022/01/12 05:27:41;;;;;;;2.00;1.00;;;25.10;49.30;;;;;;5035560;28;20287;-43
2022/01/12 05:30:14;;;;;;;3.15;1.38;;;25.10;49.30;;;;;;5034317;28;20619;-51
2022/01/12 05:32:46;;;;;;;1.98;1.00;;;25.00;49.20;;;;;;5045777;28;20306;-52
2022/01/12 05:35:18;;;;;;;3.25;1.00;;;25.00;49.30;;;;;;5044999;28;20674;-44
2022/01/12 05:37:49;;;;;;;1.95;0.95;;;25.00;49.30;;;;;;5046095;28;20608;-43
2022/01/12 05:40:20;;;;;;;2.45;0.93;;;25.00;49.40;;;;;;5031577;28;20257;-50
2022/01/12 05:42:52;;;;;;;1.05;0.88;;;25.00;49.40;;;;;;5047583;28;20259;-44
2022/01/12 05:45:24;;;;;;;2.83;1.40;;;25.00;49.30;;;;;;5053946;28;20607;-48
2022/01/12 05:50:46;;;;;;;1.92;1.05;;;25.00;49.40;;;;;;5036635;28;20271;-44
2022/01/12 05:53:17;;;;;;;4.00;1.10;;;25.00;49.40;;;;;;5033659;28;20220;-47
2022/01/12 05:55:48;;;;;;;1.67;1.00;;;24.90;49.40;;;;;;5047556;28;20282;-49
2022/01/12 05:58:18;;;;;;;2.35;1.00;;;24.90;49.40;;;;;;5038684;28;20287;-45
2022/01/12 06:00:51;;;;;;;2.17;1.30;;;24.90;49.40;;;;;;5049333;28;20202;-43
2022/01/12 06:03:21;;;;;;;1.70;1.00;;;24.90;49.50;;;;;;5045744;28;20309;-51
2022/01/12 06:05:51;;;;;;;1.70;0.85;;;24.90;49.50;;;;;;5063878;28;20670;-52
2022/01/12 06:08:32;;;;;;;2.58;1.00;;;24.90;50.10;;;;;;5045808;28;20283;-43
2022/01/12 06:11:04;;;;;;;1.75;0.90;;;24.90;49.50;;;;;;5044445;28;20210;-46
2022/01/12 06:13:35;;;;;;;2.40;0.95;;;24.90;49.60;;;;;;5042922;28;20220;-44
2022/01/12 06:16:07;;;;;;;3.78;1.10;;;24.90;49.60;;;;;;5045502;28;20227;-50
2022/01/12 06:18:38;;;;;;;2.28;1.02;;;24.90;49.80;;;;;;5047605;28;20261;-53
2022/01/12 06:21:08;;;;;;;2.08;0.98;;;24.90;49.70;;;;;;5045926;28;20286;-54
2022/01/12 06:23:39;;;;;;;1.80;1.00;;;24.80;49.60;;;;;;5044265;28;20253;-44
2022/01/12 06:26:09;;;;;;;1.63;0.90;;;24.80;49.60;;;;;;5045267;28;20327;-50
2022/01/12 06:28:42;;;;;;;1.50;0.90;;;24.80;49.60;;;;;;5032507;28;20274;-47
2022/01/12 06:31:17;;;;;;;2.10;0.90;;;24.80;49.70;;;;;;5046745;28;20616;-44
2022/01/12 06:33:49;;;;;;;1.63;0.90;;;24.80;50.30;;;;;;5054642;28;20633;-48
2022/01/12 06:36:21;;;;;;;2.58;1.10;;;24.80;49.70;;;;;;5052147;28;20270;-47
2022/01/12 06:38:53;;;;;;;1.20;0.80;;;24.80;49.70;;;;;;5046049;28;20199;-48
2022/01/12 06:41:23;;;;;;;1.50;1.10;;;24.80;49.70;;;;;;5042900;28;20247;-49
2022/01/12 06:43:54;;;;;;;2.90;1.00;;;24.80;49.70;;;;;;5037732;28;20215;-45
2022/01/12 06:46:29;;;;;;;2.10;1.20;;;24.70;49.70;;;;;;5045999;28;20290;-47
2022/01/12 06:49:00;;;;;;;2.30;0.90;;;24.70;49.70;;;;;;5045317;28;20202;-43
2022/01/12 06:51:31;;;;;;;2.42;0.90;;;24.70;49.70;;;;;;5034018;28;20283;-46
2022/01/12 06:54:01;;;;;;;1.45;1.10;;;24.70;49.80;;;;;;5057769;28;20215;-45
2022/01/12 06:56:32;;;;;;;2.03;0.82;;;24.70;49.80;;;;;;5053993;28;20286;-43
2022/01/12 06:59:02;;;;;;;1.77;0.80;;;24.70;49.90;;;;;;5049935;28;20283;-43
2022/01/12 07:01:35;;;;;;;2.63;1.00;;;24.70;49.90;;;;;;5037231;28;20274;-44
2022/01/12 07:04:05;;;;;;;3.83;0.90;;;24.70;49.90;;;;;;5068732;28;20249;-48
2022/01/12 07:06:36;;;;;;;2.13;1.08;;;24.70;50.00;;;;;;5048888;28;20353;-47
2022/01/12 07:09:07;;;;;;;2.38;0.98;;;24.60;50.00;;;;;;5040176;28;20200;-46
2022/01/12 07:11:37;;;;;;;2.35;0.90;;;24.60;50.00;;;;;;5038738;28;20292;-47
2022/01/12 07:14:08;;;;;;;1.25;0.75;;;24.60;50.10;;;;;;5036484;28;20223;-44
2022/01/12 07:16:40;;;;;;;1.23;1.02;;;24.60;50.10;;;;;;5032860;28;20295;-47
2022/01/12 07:19:11;;;;;;;1.63;0.90;;;24.60;50.10;;;;;;5047364;28;20278;-53
2022/01/12 07:21:41;;;;;;;1.88;0.95;;;24.60;50.00;;;;;;5047202;28;20223;-47
2022/01/12 07:24:12;;;;;;;3.55;1.33;;;24.50;50.00;;;;;;5049580;28;20243;-44
2022/01/12 07:26:42;;;;;;;1.25;0.90;;;24.50;50.10;;;;;;5049286;28;20234;-43
2022/01/12 07:29:13;;;;;;;2.28;0.90;;;24.50;50.10;;;;;;5040598;28;20238;-47
2022/01/12 07:31:46;;;;;;;1.90;0.93;;;24.50;50.10;;;;;;5039643;28;20245;-53
2022/01/12 07:34:16;;;;;;;2.17;1.00;;;24.40;50.10;;;;;;5046278;28;20219;-43
2022/01/12 07:36:47;;;;;;;2.63;1.20;;;24.40;50.20;;;;;;5048670;28;20286;-49
2022/01/12 07:39:20;;;;;;;3.95;1.00;;;24.40;50.20;;;;;;5047071;28;20207;-43
2022/01/12 07:41:51;;;;;;;5.03;1.27;;;24.40;50.30;;;;;;5063033;28;20246;-46
2022/01/12 07:44:21;;;;;;;1.98;0.90;;;24.40;50.30;;;;;;5062735;28;20801;-50
2022/01/12 07:46:54;;;;;;;3.60;1.30;;;24.40;50.30;;;;;;5063385;28;20211;-53
2022/01/12 07:49:24;;;;;;;4.60;1.30;;;24.30;50.30;;;;;;5067192;28;20295;-50
2022/01/12 07:51:55;;;;;;;1.30;1.00;;;24.30;50.40;;;;;;5064741;28;20290;-50
2022/01/12 07:54:25;;;;;;;1.80;1.27;;;24.30;50.40;;;;;;5061985;28;20310;-50
2022/01/12 07:56:55;;;;;;;3.33;1.00;;;24.30;50.40;;;;;;5060839;28;20283;-45
2022/01/12 07:59:26;;;;;;;2.35;1.00;;;24.30;50.40;;;;;;5064320;28;20298;-57
2022/01/12 08:01:59;;;;;;;3.28;1.08;;;24.30;50.40;;;;;;5061451;28;20754;-52
2022/01/12 08:04:29;;;;;;;2.33;1.05;;;24.20;50.40;;;;;;5063857;28;20227;-45
2022/01/12 08:06:59;;;;;;;1.85;1.25;;;24.20;50.40;;;;;;5061867;28;20290;-45
2022/01/12 08:09:30;;;;;;;1.48;1.10;;;24.20;50.40;;;;;;5062596;28;20290;-47
2022/01/12 08:12:00;;;;;;;2.88;1.10;;;24.20;50.40;;;;;;5068270;28;20298;-53
2022/01/12 08:14:31;;;;;;;2.20;1.15;;;24.20;50.50;;;;;;5062014;28;20289;-55
2022/01/12 08:17:03;;;;;;;3.67;1.05;;;24.20;50.50;;;;;;5059891;28;20286;-48
2022/01/12 08:19:37;;;;;;;2.13;0.90;;;24.10;50.50;;;;;;5058633;28;20283;-49
2022/01/12 08:22:07;;;;;;;2.33;1.00;;;24.10;50.50;;;;;;5066951;28;20311;-56
2022/01/12 08:24:38;;;;;;;1.10;0.85;;;24.10;50.60;;;;;;5065167;28;20226;-48
2022/01/12 08:27:09;;;;;;;1.05;0.93;;;24.10;50.60;;;;;;5063942;28;20199;-46
2022/01/12 08:29:40;;;;;;;1.90;0.98;;;24.00;50.60;;;;;;5060078;28;20305;-51
2022/01/12 08:32:12;;;;;;;1.88;0.85;;;24.00;50.60;;;;;;5062489;28;20258;-56
2022/01/12 08:34:43;;;;;;;1.70;0.90;;;24.00;50.60;;;;;;5067626;28;20291;-53
2022/01/12 08:37:13;;;;;;;1.30;0.88;;;24.00;50.60;;;;;;5058373;28;20625;-60
2022/01/12 08:39:44;;;;;;;0.82;0.80;;;24.00;50.60;;;;;;5060593;28;20714;-55
2022/01/12 08:42:14;;;;;;;2.25;0.98;;;23.90;50.60;;;;;;5061620;28;20301;-56
2022/01/12 08:44:45;;;;;;;3.38;1.30;;;23.90;50.60;;;;;;5066811;28;20295;-50
2022/01/12 08:47:17;;;;;;;6.60;1.60;;;24.00;50.80;;;;;;5061227;28;20278;-50
2022/01/12 08:49:48;;;;;;;3.20;1.10;;;23.90;50.90;;;;;;5036953;28;20291;-53
2022/01/12 08:52:18;;;;;;;6.78;1.10;;;23.90;51.00;;;;;;5037673;28;20200;-51
2022/01/12 08:54:48;;;;;;;5.32;1.20;;;23.90;51.10;;;;;;5035753;28;20286;-46
2022/01/12 08:57:19;;;;;;;2.05;1.00;;;23.90;51.10;;;;;;5044919;28;20199;-54
2022/01/12 08:59:49;;;;;;;4.20;1.05;;;23.90;51.20;;;;;;5047617;28;20708;-54
2022/01/12 09:02:22;;;;;;;4.70;1.08;;;23.90;51.30;;;;;;5040788;28;20315;-58
2022/01/12 09:04:52;;;;;;;2.10;1.10;;;23.80;51.30;;;;;;5038847;28;20708;-53
2022/01/12 09:07:23;;;;;;;8.82;1.15;;;23.80;51.40;;;;;;5031650;28;20282;-58
2022/01/12 09:09:53;;;;;;;3.55;1.35;;;23.80;51.50;;;;;;5041657;28;20199;-53
2022/01/12 09:12:24;;;;;;;5.32;1.42;;;23.80;51.50;;;;;;5036142;28;20283;-56
2022/01/12 09:14:54;;;;;;;3.97;1.40;;;23.80;51.60;;;;;;5039457;28;20270;-47
2022/01/12 09:17:30;;;;;;;3.95;1.45;;;23.80;51.70;;;;;;5029364;28;20286;-60
2022/01/12 09:20:01;;;;;;;3.75;1.52;;;23.80;51.70;;;;;;5048483;28;20187;-57
2022/01/12 09:22:31;;;;;;;3.47;1.50;;;23.70;51.70;;;;;;5047235;28;20302;-57
2022/01/12 09:25:02;;;;;;;4.38;1.70;;;23.70;51.70;;;;;;5039325;28;20287;-58
2022/01/12 09:27:32;;;;;;;2.50;1.80;;;23.70;51.80;;;;;;5036129;28;20290;-51
2022/01/12 09:30:02;;;;;;;4.63;1.92;;;23.70;51.80;;;;;;5048920;28;20621;-55
2022/01/12 09:32:35;;;;;;;4.00;1.60;;;23.70;51.90;;;;;;5047492;28;20314;-52
2022/01/12 09:35:06;;;;;;;6.50;1.92;;;23.70;51.90;;;;;;5046405;28;20766;-57
2022/01/12 09:37:36;;;;;;;6.28;2.08;;;23.70;51.90;;;;;;5042725;28;20659;-53
2022/01/12 09:40:07;;;;;;;5.47;2.20;;;23.70;51.90;;;;;;5034377;28;20227;-50
2022/01/12 09:42:38;;;;;;;3.78;1.92;;;23.70;51.90;;;;;;5031896;28;20318;-47
2022/01/12 09:45:14;;;;;;;3.45;2.22;;;23.70;52.00;;;;;;5032795;28;20649;-47
2022/01/12 09:47:49;;;;;;;5.43;2.45;;;23.60;52.00;;;;;;5042105;28;20388;-50
2022/01/12 09:50:21;;;;;;;4.18;2.10;;;23.60;52.20;;;;;;5040004;28;20576;-49
2022/01/12 09:52:52;;;;;;;4.43;2.38;;;23.60;52.30;;;;;;5050898;28;20306;-52
2022/01/12 09:55:23;;;;;;;4.95;2.42;;;23.60;52.30;;;;;;5044798;28;20282;-54
2022/01/12 09:57:54;;;;;;;3.28;2.20;;;23.60;52.30;;;;;;5045857;28;20291;-51
2022/01/12 10:00:27;;;;;;;3.97;2.15;;;23.60;52.30;;;;;;5049534;28;20285;-52
2022/01/12 10:03:08;;;;;;;2.88;2.10;;;23.60;52.30;;;;;;5056271;28;20314;-58
2022/01/12 10:05:39;;;;;;;5.05;2.45;;;23.60;52.30;;;;;;5046945;28;20283;-52
2022/01/12 10:08:14;;;;;;;4.18;2.40;;;23.50;52.20;;;;;;5030132;28;20278;-47
2022/01/12 10:10:50;;;;;;;4.30;2.35;;;23.50;52.30;;;;;;5055808;28;20285;-55
2022/01/12 10:13:25;;;;;;;4.10;2.60;;;23.50;52.20;;;;;;5046012;28;20298;-58
2022/01/12 10:15:56;;;;;;;2.75;1.98;;;23.50;52.10;;;;;;5044656;28;20196;-54
2022/01/12 10:18:29;;;;;;;4.38;2.40;;;23.50;52.20;;;;;;5031744;28;20282;-60
2022/01/12 10:20:59;;;;;;;4.88;2.45;;;23.50;52.20;;;;;;5048059;28;20917;-49
2022/01/12 10:23:29;;;;;;;5.68;2.38;;;23.40;52.70;;;;;;5044794;28;20750;-59
2022/01/12 10:26:00;;;;;;;3.40;2.25;;;23.50;52.10;;;;;;5040462;28;20846;-58
2022/01/12 10:28:30;;;;;;;3.08;2.22;;;23.40;52.00;;;;;;5033600;28;20283;-56
2022/01/12 10:31:02;;;;;;;4.93;2.20;;;23.40;52.00;;;;;;5030172;28;20275;-49
2022/01/12 10:33:36;;;;;;;3.03;1.95;;;23.40;52.00;;;;;;5040200;28;20778;-58
2022/01/12 10:36:07;;;;;;;3.13;2.08;;;23.40;52.10;;;;;;5044161;28;20287;-48
2022/01/12 10:38:38;;;;;;;3.33;1.85;;;23.40;52.00;;;;;;5042880;28;20200;-47
2022/01/12 10:41:08;;;;;;;2.70;1.85;;;23.40;52.00;;;;;;5042817;28;20639;-56
2022/01/12 10:43:40;;;;;;;2.85;2.03;;;23.30;52.00;;;;;;5040811;28;20310;-50
2022/01/12 10:46:12;;;;;;;3.92;1.90;;;23.30;51.90;;;;;;5043396;28;20291;-54
2022/01/12 10:48:47;;;;;;;3.17;1.95;;;23.30;51.90;;;;;;5046649;28;20291;-45
2022/01/12 10:51:20;;;;;;;3.58;1.70;;;23.30;51.90;;;;;;5041023;28;20927;-47
2022/01/12 10:53:51;;;;;;;2.65;1.77;;;23.30;51.90;;;;;;5039925;28;20216;-59
2022/01/12 10:56:23;;;;;;;2.90;1.90;;;23.30;51.90;;;;;;5040719;28;20279;-49
2022/01/12 10:58:54;;;;;;;4.70;1.92;;;23.30;51.90;;;;;;5041402;28;20286;-48
2022/01/12 11:01:26;;;;;;;3.03;1.90;;;23.20;51.80;;;;;;5042201;28;20834;-43
2022/01/12 11:03:59;;;;;;;4.65;2.13;;;23.20;51.80;;;;;;5040924;28;20306;-56
2022/01/12 11:06:30;;;;;;;4.80;2.15;;;23.20;51.80;;;;;;5042527;28;20191;-53
2022/01/12 11:09:01;;;;;;;3.15;1.85;;;23.20;51.80;;;;;;5038812;28;20794;-56
2022/01/12 11:11:32;;;;;;;2.63;1.65;;;23.20;51.90;;;;;;5041966;28;20283;-48
2022/01/12 11:14:03;;;;;;;3.08;1.67;;;23.20;51.80;;;;;;5042529;28;20303;-57
2022/01/12 11:16:34;;;;;;;3.33;1.85;;;23.20;51.80;;;;;;5041262;28;20767;-59
2022/01/12 11:19:08;;;;;;;3.42;1.55;;;23.10;51.80;;;;;;5042243;28;20201;-49
2022/01/12 11:21:44;;;;;;;3.50;2.00;;;23.10;51.80;;;;;;5042748;28;20234;-47
2022/01/12 11:24:19;;;;;;;3.25;1.92;;;23.10;51.80;;;;;;5042751;28;20310;-54
2022/01/12 11:26:52;;;;;;;3.63;2.10;;;23.10;51.80;;;;;;5040982;28;20195;-49
2022/01/12 11:29:29;;;;;;;3.70;2.13;;;23.10;51.80;;;;;;5043867;28;20271;-58
2022/01/12 11:32:09;;;;;;;3.35;2.15;;;23.00;51.70;;;;;;5035196;28;20731;-51
2022/01/12 11:34:42;;;;;;;3.65;1.95;;;23.00;51.70;;;;;;5048300;28;20612;-44
2022/01/12 11:37:16;;;;;;;4.13;1.98;;;23.00;51.70;;;;;;5045057;28;20211;-44
2022/01/12 11:39:48;;;;;;;2.92;1.80;;;23.00;51.70;;;;;;5036861;28;20482;-50
2022/01/12 11:42:19;;;;;;;3.60;1.70;;;23.00;51.70;;;;;;5051210;28;20199;-43
2022/01/12 11:44:49;;;;;;;4.22;1.73;;;23.00;51.70;;;;;;5035278;28;20228;-52
2022/01/12 11:47:22;;;;;;;4.10;1.95;;;22.90;51.70;;;;;;5037682;28;20287;-49
2022/01/12 11:49:54;;;;;;;3.53;1.80;;;22.90;51.70;;;;;;5038974;28;20205;-56
2022/01/12 11:52:27;;;;;;;4.07;2.10;;;22.90;51.70;;;;;;5045841;28;20738;-48
2022/01/12 11:55:10;;;;;;;4.00;2.03;;;22.90;51.70;;;;;;5047858;28;20284;-53
2022/01/12 11:57:43;;;;;;;6.47;1.75;;;22.90;51.70;;;;;;5049869;28;20287;-56
2022/01/12 12:00:15;;;;;;;3.08;1.60;;;22.90;51.70;;;;;;5049456;28;20740;-47
2022/01/12 12:02:47;;;;;;;3.97;1.80;;;22.90;51.70;;;;;;5048056;28;20222;-48
2022/01/12 12:05:21;;;;;;;2.88;1.50;;;22.80;51.60;;;;;;5049369;28;20283;-55
2022/01/12 12:07:54;;;;;;;3.10;1.92;;;22.80;51.60;;;;;;5046793;28;20283;-57
2022/01/12 12:10:26;;;;;;;2.72;1.48;;;22.80;51.70;;;;;;5049905;28;20697;-57
2022/01/12 12:12:59;;;;;;;2.97;1.50;;;22.80;51.70;;;;;;5049126;28;20298;-45
2022/01/12 12:15:31;;;;;;;3.47;1.88;;;22.80;51.60;;;;;;5049415;28;20286;-49
2022/01/12 12:18:04;;;;;;;4.47;1.95;;;22.80;51.60;;;;;;5049144;28;20443;-56
2022/01/12 12:20:37;;;;;;;4.55;1.83;;;22.80;51.60;;;;;;5048894;28;20206;-50
2022/01/12 12:23:07;;;;;;;2.70;1.52;;;22.70;51.60;;;;;;5039638;28;20258;-56
2022/01/12 12:25:38;;;;;;;3.40;2.00;;;22.70;51.60;;;;;;5039523;28;20206;-57
2022/01/12 12:28:13;;;;;;;3.10;1.65;;;22.70;51.60;;;;;;5035088;28;20196;-47
2022/01/12 12:30:44;;;;;;;3.28;1.58;;;22.70;51.60;;;;;;5040534;28;20201;-56
2022/01/12 12:33:16;;;;;;;2.45;1.40;;;22.70;51.60;;;;;;5043170;28;20303;-47
2022/01/12 12:35:48;;;;;;;3.33;1.70;;;22.70;51.60;;;;;;5045628;28;20200;-52
2022/01/12 12:38:21;;;;;;;3.25;1.50;;;22.70;51.50;;;;;;5044371;28;20278;-56
2022/01/12 12:40:55;;;;;;;3.35;1.65;;;22.60;51.50;;;;;;5036313;28;20200;-53
2022/01/12 12:43:29;;;;;;;2.80;1.58;;;22.70;51.60;;;;;;5048578;28;20223;-44
2022/01/12 12:46:01;;;;;;;3.03;1.48;;;22.70;51.60;;;;;;5049005;28;20289;-52
2022/01/12 12:48:33;;;;;;;3.50;1.58;;;22.60;51.60;;;;;;5047896;28;20204;-43
2022/01/12 12:51:08;;;;;;;2.15;1.48;;;22.60;51.50;;;;;;5049798;28;20632;-57
2022/01/12 12:53:39;;;;;;;3.08;1.63;;;22.60;51.60;;;;;;5038272;28;20215;-46
2022/01/12 12:56:14;;;;;;;3.95;1.80;;;22.60;51.60;;;;;;5031032;28;20284;-55
2022/01/12 12:58:50;;;;;;;2.15;1.55;;;22.50;51.50;;;;;;5049325;28;20207;-52
2022/01/12 13:01:21;;;;;;;4.15;1.50;;;22.50;51.50;;;;;;5036985;28;20283;-46
2022/01/12 13:03:54;;;;;;;3.90;1.88;;;22.50;51.50;;;;;;5032574;28;20224;-52
2022/01/12 13:06:29;;;;;;;3.85;1.52;;;22.50;51.50;;;;;;5035259;28;20200;-55
2022/01/12 13:09:02;;;;;;;2.80;1.50;;;22.50;51.50;;;;;;5044581;28;20195;-52
2022/01/12 13:11:34;;;;;;;4.03;1.88;;;22.50;51.50;;;;;;5049201;28;20207;-55
2022/01/12 13:14:06;;;;;;;2.92;1.70;;;22.50;51.50;;;;;;5048321;28;20310;-52
2022/01/12 13:16:37;;;;;;;3.53;1.60;;;22.40;51.50;;;;;;5041029;28;20294;-48
2022/01/12 13:19:20;;;;;;;2.70;1.67;;;22.40;51.50;;;;;;5037579;28;20282;-51
2022/01/12 13:21:51;;;;;;;2.65;1.60;;;22.50;51.50;;;;;;5048468;28;20210;-54
2022/01/12 13:24:23;;;;;;;2.85;1.48;;;22.40;51.50;;;;;;5046457;28;20651;-52
2022/01/12 13:26:57;;;;;;;2.40;1.15;;;22.40;51.50;;;;;;5044881;28;20204;-57
2022/01/12 13:29:28;;;;;;;2.00;1.60;;;22.40;51.50;;;;;;5034345;28;20241;-51
2022/01/12 13:31:58;;;;;;;3.47;1.52;;;22.40;51.50;;;;;;5046807;28;20278;-49
2022/01/12 13:34:36;;;;;;;3.50;1.63;;;22.40;51.50;;;;;;5047754;28;20298;-49
2022/01/12 13:37:14;;;;;;;2.38;1.38;;;22.40;51.50;;;;;;5031908;28;20282;-47
2022/01/12 13:39:46;;;;;;;4.20;1.73;;;22.30;51.40;;;;;;5032763;28;20203;-54
2022/01/12 13:42:16;;;;;;;2.20;1.50;;;22.30;51.50;;;;;;5046769;28;20274;-46
2022/01/12 13:44:47;;;;;;;2.53;1.63;;;22.30;51.50;;;;;;5030777;28;20315;-49
2022/01/12 13:47:24;;;;;;;3.30;1.50;;;22.30;51.50;;;;;;5047529;28;20243;-49
2022/01/12 13:50:08;;;;;;;4.22;1.67;;;22.20;51.40;;;;;;5046654;28;20283;-49
2022/01/12 13:52:41;;;;;;;3.72;1.40;;;22.20;51.40;;;;;;5047450;28;20712;-49
2022/01/12 13:55:13;;;;;;;2.85;1.40;;;22.20;51.40;;;;;;5045994;28;20282;-46
2022/01/12 13:57:45;;;;;;;3.30;1.65;;;22.20;51.40;;;;;;5047415;28;20207;-49
2022/01/12 14:00:21;;;;;;;2.63;1.55;;;22.20;51.40;;;;;;5047809;28;20747;-54
2022/01/12 14:02:51;;;;;;;2.30;1.35;;;22.20;51.40;;;;;;5047369;28;20219;-55
2022/01/12 14:05:23;;;;;;;3.20;1.48;;;22.20;51.40;;;;;;5046937;28;20258;-58
2022/01/12 14:08:11;;;;;;;2.67;1.52;;;22.20;51.40;;;;;;5047180;28;20282;-52
2022/01/12 14:10:45;;;;;;;2.95;1.50;;;22.20;51.40;;;;;;5047183;28;20341;-51
2022/01/12 14:13:15;;;;;;;2.50;1.42;;;22.10;51.40;;;;;;5047737;28;20773;-51
2022/01/12 14:15:47;;;;;;;2.90;1.67;;;22.10;51.30;;;;;;5047613;28;20269;-49
2022/01/12 14:18:20;;;;;;;2.05;1.10;;;22.10;51.70;;;;;;5047286;28;20199;-55
2022/01/12 14:20:51;;;;;;;2.15;1.30;;;22.10;51.40;;;;;;5045248;28;20283;-54